TOM48L EGCC-LGSK
Flight info
| Callsign | TOM48L |
|---|---|
| Flight time | 3h 20m |
| Altitude | 35000 |
| Route | SANBA N859 HON L15 FINMA DCT CHT DCT ITVIP DCT KONAN DCT KOK UL607 REMBA DCT LIRSU DCT ULNOK/N0448F370 DCT VIBOM DCT NOMBO DCT RIDAR DCT RADIZ DCT NEMEK DCT ETOBI DCT MEDUX UM867 KOGAT DCT ERANA UL737 TSL UL617 IBIDI |
| Aircraft | B738/M-SDFGHIRWXY/LB1 |
Departure
| Time | 2026-05-08 08:19 |
|---|---|
| Airport | Manchester Airport (EGCC) |
Arrival
| Time | 2026-05-08 11:39 |
|---|---|
| Airport | Skiathos Island National Airport (LGSK) |
| Time | Latitude | Longitude | Altitude | Speed | Heading |
|---|---|---|---|---|---|
| 2026-05-08 07:48 | 53.36874 | -2.29134 | 254 ft | 0 kts | 302° |
| 2026-05-08 08:08 | 53.36870 | -2.29125 | 254 ft | 3 kts | 302° |
| 2026-05-08 08:09 | 53.36858 | -2.29094 | 254 ft | 2 kts | 302° |
| 2026-05-08 08:09 | 53.36851 | -2.29070 | 254 ft | 3 kts | 253° |
| 2026-05-08 08:09 | 53.36862 | -2.29040 | 254 ft | 3 kts | 225° |
| 2026-05-08 08:09 | 53.36877 | -2.29015 | 254 ft | 3 kts | 225° |
| 2026-05-08 08:10 | 53.36894 | -2.28988 | 254 ft | 3 kts | 225° |
| 2026-05-08 08:10 | 53.36898 | -2.28981 | 254 ft | 0 kts | 225° |
| 2026-05-08 08:12 | 53.36897 | -2.28982 | 254 ft | 1 kts | 225° |
| 2026-05-08 08:12 | 53.36877 | -2.29015 | 254 ft | 8 kts | 225° |
| 2026-05-08 08:12 | 53.36817 | -2.29083 | 254 ft | 12 kts | 200° |
| 2026-05-08 08:13 | 53.36740 | -2.29113 | 254 ft | 11 kts | 160° |
| 2026-05-08 08:13 | 53.36684 | -2.29024 | 254 ft | 11 kts | 134° |
| 2026-05-08 08:13 | 53.36635 | -2.28929 | 254 ft | 11 kts | 108° |
| 2026-05-08 08:13 | 53.36595 | -2.28825 | 254 ft | 11 kts | 123° |
| 2026-05-08 08:14 | 53.36556 | -2.28718 | 254 ft | 11 kts | 130° |
| 2026-05-08 08:14 | 53.36494 | -2.28613 | 254 ft | 14 kts | 135° |
| 2026-05-08 08:14 | 53.36422 | -2.28500 | 254 ft | 14 kts | 149° |
| 2026-05-08 08:14 | 53.36332 | -2.28451 | 254 ft | 13 kts | 141° |
| 2026-05-08 08:15 | 53.36267 | -2.28340 | 254 ft | 14 kts | 134° |
| 2026-05-08 08:15 | 53.36194 | -2.28215 | 254 ft | 17 kts | 134° |
| 2026-05-08 08:15 | 53.36108 | -2.28070 | 254 ft | 18 kts | 136° |
| 2026-05-08 08:15 | 53.36013 | -2.27939 | 254 ft | 17 kts | 145° |
| 2026-05-08 08:16 | 53.35939 | -2.27796 | 254 ft | 17 kts | 107° |
| 2026-05-08 08:16 | 53.35843 | -2.27734 | 252 ft | 17 kts | 183° |
| 2026-05-08 08:16 | 53.35742 | -2.27648 | 248 ft | 17 kts | 159° |
| 2026-05-08 08:16 | 53.35639 | -2.27548 | 245 ft | 17 kts | 141° |
| 2026-05-08 08:17 | 53.35547 | -2.27425 | 245 ft | 16 kts | 141° |
| 2026-05-08 08:17 | 53.35460 | -2.27306 | 247 ft | 16 kts | 141° |
| 2026-05-08 08:17 | 53.35360 | -2.27191 | 244 ft | 19 kts | 164° |
| 2026-05-08 08:17 | 53.35218 | -2.27227 | 233 ft | 23 kts | 192° |
| 2026-05-08 08:18 | 53.35072 | -2.27275 | 227 ft | 20 kts | 191° |
| 2026-05-08 08:18 | 53.35000 | -2.27338 | 224 ft | 9 kts | 230° |
| 2026-05-08 08:18 | 53.34935 | -2.27472 | 223 ft | 36 kts | 231° |
| 2026-05-08 08:18 | 53.34624 | -2.28117 | 226 ft | 104 kts | 231° |
| 2026-05-08 08:19 | 53.34044 | -2.29318 | 309 ft | 151 kts | 229° |
| 2026-05-08 08:19 | 53.33376 | -2.30707 | 968 ft | 156 kts | 229° |
| 2026-05-08 08:19 | 53.32676 | -2.32166 | 1644 ft | 166 kts | 230° |
| 2026-05-08 08:19 | 53.32053 | -2.33944 | 2025 ft | 192 kts | 257° |
| 2026-05-08 08:20 | 53.32205 | -2.36269 | 2412 ft | 215 kts | 283° |
| 2026-05-08 08:20 | 53.32565 | -2.38725 | 2935 ft | 221 kts | 281° |
| 2026-05-08 08:20 | 53.32728 | -2.41253 | 3633 ft | 219 kts | 255° |
| 2026-05-08 08:20 | 53.31999 | -2.43418 | 4323 ft | 220 kts | 220° |
| 2026-05-08 08:21 | 53.30567 | -2.44587 | 4582 ft | 244 kts | 191° |
| 2026-05-08 08:21 | 53.28842 | -2.44927 | 5180 ft | 254 kts | 185° |
| 2026-05-08 08:21 | 53.27069 | -2.44813 | 5904 ft | 260 kts | 164° |
| 2026-05-08 08:21 | 53.25411 | -2.43586 | 6732 ft | 262 kts | 154° |
| 2026-05-08 08:22 | 53.23792 | -2.42138 | 7459 ft | 266 kts | 153° |
| 2026-05-08 08:22 | 53.22149 | -2.40667 | 8163 ft | 270 kts | 154° |
| 2026-05-08 08:22 | 53.20480 | -2.39178 | 8901 ft | 274 kts | 154° |
| 2026-05-08 08:22 | 53.18786 | -2.37679 | 9620 ft | 278 kts | 154° |
| 2026-05-08 08:23 | 53.17064 | -2.36169 | 10288 ft | 283 kts | 154° |
| 2026-05-08 08:23 | 53.15263 | -2.34598 | 10524 ft | 304 kts | 154° |
| 2026-05-08 08:23 | 53.13318 | -2.32903 | 10718 ft | 324 kts | 154° |
| 2026-05-08 08:23 | 53.11284 | -2.31128 | 11180 ft | 334 kts | 154° |
| 2026-05-08 08:24 | 53.09208 | -2.29317 | 11846 ft | 338 kts | 154° |
| 2026-05-08 08:24 | 53.07143 | -2.27516 | 12568 ft | 341 kts | 154° |
| 2026-05-08 08:24 | 53.05029 | -2.25676 | 13284 ft | 345 kts | 154° |
| 2026-05-08 08:24 | 53.02891 | -2.23819 | 14000 ft | 349 kts | 154° |
| 2026-05-08 08:25 | 53.00732 | -2.21945 | 14669 ft | 352 kts | 154° |
| 2026-05-08 08:25 | 52.98551 | -2.20055 | 15359 ft | 355 kts | 154° |
| 2026-05-08 08:25 | 52.96352 | -2.18150 | 16049 ft | 358 kts | 154° |
| 2026-05-08 08:25 | 52.94123 | -2.16221 | 16724 ft | 362 kts | 154° |
| 2026-05-08 08:26 | 52.91879 | -2.14281 | 17390 ft | 366 kts | 155° |
| 2026-05-08 08:26 | 52.89607 | -2.12319 | 18052 ft | 370 kts | 155° |
| 2026-05-08 08:26 | 52.87309 | -2.10336 | 18666 ft | 374 kts | 155° |
| 2026-05-08 08:26 | 52.85020 | -2.08364 | 19236 ft | 377 kts | 155° |
| 2026-05-08 08:27 | 52.82686 | -2.06353 | 19808 ft | 380 kts | 155° |
| 2026-05-08 08:27 | 52.80325 | -2.04323 | 20386 ft | 383 kts | 155° |
| 2026-05-08 08:27 | 52.77946 | -2.02280 | 20951 ft | 387 kts | 155° |
| 2026-05-08 08:27 | 52.75545 | -2.00220 | 21502 ft | 390 kts | 155° |
| 2026-05-08 08:28 | 52.73119 | -1.98141 | 22033 ft | 393 kts | 154° |
| 2026-05-08 08:28 | 52.70683 | -1.96057 | 22569 ft | 397 kts | 154° |
| 2026-05-08 08:28 | 52.68220 | -1.93951 | 23083 ft | 400 kts | 154° |
| 2026-05-08 08:28 | 52.65737 | -1.91832 | 23605 ft | 404 kts | 154° |
| 2026-05-08 08:29 | 52.63228 | -1.89693 | 24020 ft | 407 kts | 154° |
| 2026-05-08 08:29 | 52.60692 | -1.87534 | 24417 ft | 411 kts | 154° |
| 2026-05-08 08:29 | 52.58137 | -1.85360 | 24814 ft | 416 kts | 154° |
| 2026-05-08 08:29 | 52.55554 | -1.83167 | 25177 ft | 420 kts | 154° |
| 2026-05-08 08:30 | 52.52977 | -1.80980 | 25548 ft | 423 kts | 154° |
| 2026-05-08 08:30 | 52.50340 | -1.78746 | 25913 ft | 427 kts | 154° |
| 2026-05-08 08:30 | 52.45004 | -1.74240 | 26591 ft | 435 kts | 154° |
| 2026-05-08 08:31 | 52.42296 | -1.71950 | 26940 ft | 439 kts | 154° |
| 2026-05-08 08:31 | 52.39572 | -1.69655 | 27285 ft | 442 kts | 154° |
| 2026-05-08 08:31 | 52.36853 | -1.67248 | 27608 ft | 446 kts | 148° |
| 2026-05-08 08:31 | 52.34373 | -1.64264 | 27931 ft | 450 kts | 139° |
| 2026-05-08 08:32 | 52.32153 | -1.60631 | 28305 ft | 452 kts | 133° |
| 2026-05-08 08:32 | 52.29989 | -1.56859 | 28627 ft | 456 kts | 133° |
| 2026-05-08 08:32 | 52.27816 | -1.53054 | 28952 ft | 459 kts | 133° |
| 2026-05-08 08:32 | 52.25626 | -1.49249 | 29253 ft | 462 kts | 133° |
| 2026-05-08 08:33 | 52.23407 | -1.45425 | 29589 ft | 464 kts | 133° |
| 2026-05-08 08:33 | 52.21196 | -1.41647 | 30022 ft | 464 kts | 133° |
| 2026-05-08 08:33 | 52.18953 | -1.37835 | 30220 ft | 469 kts | 133° |
| 2026-05-08 08:33 | 52.16678 | -1.33984 | 30418 ft | 473 kts | 133° |
| 2026-05-08 08:34 | 52.14395 | -1.30125 | 30727 ft | 473 kts | 133° |
| 2026-05-08 08:34 | 52.12105 | -1.26262 | 31035 ft | 474 kts | 134° |
| 2026-05-08 08:34 | 52.09815 | -1.22399 | 31323 ft | 475 kts | 134° |
| 2026-05-08 08:34 | 52.07519 | -1.18530 | 31658 ft | 475 kts | 134° |
| 2026-05-08 08:35 | 52.05226 | -1.14671 | 32015 ft | 474 kts | 134° |
| 2026-05-08 08:35 | 52.02933 | -1.10824 | 32310 ft | 474 kts | 134° |
| 2026-05-08 08:35 | 52.00615 | -1.07006 | 32571 ft | 475 kts | 135° |
| 2026-05-08 08:35 | 51.98242 | -1.03269 | 32860 ft | 476 kts | 137° |
| 2026-05-08 08:36 | 51.95789 | -0.99666 | 33204 ft | 475 kts | 139° |
| 2026-05-08 08:36 | 51.93313 | -0.96140 | 33618 ft | 471 kts | 140° |
| 2026-05-08 08:36 | 51.90877 | -0.92696 | 34435 ft | 458 kts | 140° |
| 2026-05-08 08:36 | 51.88487 | -0.89303 | 34747 ft | 457 kts | 140° |
| 2026-05-08 08:37 | 51.86092 | -0.85887 | 34889 ft | 460 kts | 140° |
| 2026-05-08 08:37 | 51.83688 | -0.82444 | 35023 ft | 463 kts | 140° |
| 2026-05-08 08:37 | 51.81270 | -0.78974 | 35194 ft | 465 kts | 140° |
| 2026-05-08 08:37 | 51.78885 | -0.75552 | 35431 ft | 464 kts | 140° |
| 2026-05-08 08:38 | 51.76468 | -0.72088 | 35713 ft | 463 kts | 140° |
| 2026-05-08 08:38 | 51.74063 | -0.68647 | 35975 ft | 462 kts | 140° |
| 2026-05-08 08:38 | 51.71655 | -0.65208 | 36201 ft | 462 kts | 140° |
| 2026-05-08 08:38 | 51.69247 | -0.61775 | 36417 ft | 462 kts | 140° |
| 2026-05-08 08:39 | 51.66830 | -0.58335 | 36660 ft | 462 kts | 140° |
| 2026-05-08 08:39 | 51.64502 | -0.54758 | 36867 ft | 463 kts | 132° |
| 2026-05-08 08:39 | 51.62569 | -0.50621 | 37073 ft | 464 kts | 123° |
| 2026-05-08 08:39 | 51.61025 | -0.46038 | 37095 ft | 468 kts | 114° |
| 2026-05-08 08:40 | 51.58919 | -0.36168 | 37101 ft | 467 kts | 108° |
| 2026-05-08 08:40 | 51.56942 | -0.26256 | 37086 ft | 463 kts | 108° |
| 2026-05-08 08:41 | 51.54935 | -0.16450 | 37097 ft | 460 kts | 109° |
| 2026-05-08 08:41 | 51.52895 | -0.06686 | 37087 ft | 459 kts | 109° |
| 2026-05-08 08:42 | 51.50860 | 0.02961 | 37107 ft | 458 kts | 109° |
| 2026-05-08 08:42 | 51.48804 | 0.12666 | 37113 ft | 459 kts | 109° |
| 2026-05-08 08:43 | 51.46737 | 0.22379 | 37106 ft | 461 kts | 110° |
| 2026-05-08 08:43 | 51.44652 | 0.32134 | 37102 ft | 463 kts | 110° |
| 2026-05-08 08:44 | 51.42567 | 0.41844 | 37103 ft | 465 kts | 110° |
| 2026-05-08 08:44 | 51.40450 | 0.51657 | 37102 ft | 466 kts | 110° |
| 2026-05-08 08:45 | 51.38322 | 0.61473 | 37106 ft | 467 kts | 110° |
| 2026-05-08 08:45 | 51.36178 | 0.71317 | 37098 ft | 468 kts | 110° |
| 2026-05-08 08:46 | 51.34026 | 0.81152 | 37103 ft | 468 kts | 110° |
| 2026-05-08 08:46 | 51.31872 | 0.90948 | 37076 ft | 467 kts | 110° |
| 2026-05-08 08:47 | 51.29727 | 1.00666 | 37107 ft | 465 kts | 111° |
| 2026-05-08 08:47 | 51.27713 | 1.10508 | 37095 ft | 465 kts | 106° |
| 2026-05-08 08:48 | 51.26140 | 1.20515 | 37114 ft | 464 kts | 104° |
| 2026-05-08 08:48 | 51.24603 | 1.30517 | 37115 ft | 463 kts | 105° |
| 2026-05-08 08:49 | 51.23006 | 1.40485 | 37110 ft | 463 kts | 105° |
| 2026-05-08 08:49 | 51.21388 | 1.50345 | 37111 ft | 462 kts | 106° |
| 2026-05-08 08:50 | 51.19749 | 1.60264 | 37114 ft | 462 kts | 106° |
| 2026-05-08 08:50 | 51.18108 | 1.70149 | 37114 ft | 462 kts | 106° |
| 2026-05-08 08:51 | 51.16734 | 1.78386 | 37108 ft | 462 kts | 106° |
| 2026-05-08 08:51 | 51.15075 | 1.88290 | 37107 ft | 463 kts | 106° |
| 2026-05-08 08:52 | 51.13409 | 1.98195 | 37103 ft | 463 kts | 105° |
| 2026-05-08 08:52 | 51.12508 | 2.08371 | 37113 ft | 465 kts | 95° |
| 2026-05-08 08:53 | 51.12051 | 2.18649 | 37107 ft | 466 kts | 95° |
| 2026-05-08 08:53 | 51.11544 | 2.28952 | 37103 ft | 467 kts | 96° |
| 2026-05-08 08:54 | 51.10983 | 2.39184 | 37094 ft | 467 kts | 96° |
| 2026-05-08 08:54 | 51.10400 | 2.49497 | 37104 ft | 467 kts | 96° |
| 2026-05-08 08:55 | 51.09812 | 2.59800 | 37103 ft | 468 kts | 96° |
| 2026-05-08 08:55 | 51.08792 | 2.70031 | 37103 ft | 466 kts | 107° |
| 2026-05-08 08:56 | 51.06952 | 2.79890 | 37106 ft | 465 kts | 108° |
| 2026-05-08 08:56 | 51.05073 | 2.89743 | 37101 ft | 466 kts | 108° |
| 2026-05-08 08:57 | 51.03251 | 2.99559 | 37104 ft | 466 kts | 108° |
| 2026-05-08 08:57 | 51.01436 | 3.09440 | 37098 ft | 465 kts | 108° |
| 2026-05-08 08:58 | 50.99617 | 3.19306 | 37100 ft | 465 kts | 108° |
| 2026-05-08 08:58 | 50.97786 | 3.29172 | 37103 ft | 465 kts | 108° |
| 2026-05-08 08:59 | 50.95951 | 3.39001 | 37101 ft | 464 kts | 108° |
| 2026-05-08 08:59 | 50.94117 | 3.48775 | 37102 ft | 464 kts | 108° |
| 2026-05-08 09:00 | 50.92272 | 3.58570 | 37108 ft | 464 kts | 108° |
| 2026-05-08 09:00 | 50.90407 | 3.68368 | 37110 ft | 464 kts | 109° |
| 2026-05-08 09:01 | 50.88515 | 3.78142 | 37112 ft | 464 kts | 109° |
| 2026-05-08 09:01 | 50.86617 | 3.87894 | 37109 ft | 464 kts | 109° |
| 2026-05-08 09:02 | 50.84714 | 3.97641 | 37108 ft | 464 kts | 109° |
| 2026-05-08 09:02 | 50.82802 | 4.07390 | 37107 ft | 464 kts | 109° |
| 2026-05-08 09:03 | 50.80896 | 4.17057 | 37106 ft | 464 kts | 109° |
| 2026-05-08 09:03 | 50.78970 | 4.26786 | 37095 ft | 464 kts | 109° |
| 2026-05-08 09:04 | 50.77032 | 4.36518 | 37112 ft | 464 kts | 109° |
| 2026-05-08 09:04 | 50.75089 | 4.46234 | 37094 ft | 464 kts | 109° |
| 2026-05-08 09:05 | 50.73148 | 4.55896 | 37105 ft | 464 kts | 109° |
| 2026-05-08 09:05 | 50.71211 | 4.65608 | 37107 ft | 464 kts | 109° |
| 2026-05-08 09:06 | 50.69329 | 4.75360 | 37099 ft | 465 kts | 109° |
| 2026-05-08 09:06 | 50.67436 | 4.85104 | 37101 ft | 464 kts | 109° |
| 2026-05-08 09:07 | 50.65350 | 4.94729 | 37098 ft | 462 kts | 116° |
| 2026-05-08 09:07 | 50.62600 | 5.03875 | 37099 ft | 462 kts | 118° |
| 2026-05-08 09:08 | 50.59767 | 5.12950 | 37094 ft | 462 kts | 118° |
| 2026-05-08 09:08 | 50.56967 | 5.22062 | 37099 ft | 462 kts | 118° |
| 2026-05-08 09:09 | 50.54194 | 5.31180 | 37102 ft | 462 kts | 118° |
| 2026-05-08 09:09 | 50.51433 | 5.40257 | 37093 ft | 462 kts | 118° |
| 2026-05-08 09:10 | 50.48652 | 5.49364 | 37097 ft | 462 kts | 118° |
| 2026-05-08 09:10 | 50.45860 | 5.58468 | 37089 ft | 463 kts | 118° |
| 2026-05-08 09:11 | 50.43074 | 5.67514 | 37090 ft | 463 kts | 118° |
| 2026-05-08 09:11 | 50.40266 | 5.76600 | 37089 ft | 463 kts | 118° |
| 2026-05-08 09:12 | 50.37454 | 5.85667 | 37101 ft | 463 kts | 118° |
| 2026-05-08 09:12 | 50.34631 | 5.94733 | 37094 ft | 463 kts | 118° |
| 2026-05-08 09:13 | 50.31800 | 6.03793 | 37082 ft | 463 kts | 118° |
| 2026-05-08 09:13 | 50.28959 | 6.12851 | 37096 ft | 463 kts | 118° |
| 2026-05-08 09:14 | 50.26111 | 6.21901 | 37098 ft | 463 kts | 118° |
| 2026-05-08 09:14 | 50.23276 | 6.30877 | 37107 ft | 463 kts | 118° |
| 2026-05-08 09:15 | 50.20414 | 6.39907 | 37091 ft | 463 kts | 119° |
| 2026-05-08 09:15 | 50.17935 | 6.49190 | 37106 ft | 466 kts | 107° |
| 2026-05-08 09:16 | 50.16357 | 6.59017 | 37101 ft | 466 kts | 105° |
| 2026-05-08 09:16 | 50.14815 | 6.68848 | 37104 ft | 466 kts | 106° |
| 2026-05-08 09:17 | 50.13235 | 6.78607 | 37095 ft | 466 kts | 106° |
| 2026-05-08 09:17 | 50.11614 | 6.88396 | 37097 ft | 466 kts | 107° |
| 2026-05-08 09:18 | 50.09988 | 6.98118 | 37096 ft | 466 kts | 107° |
| 2026-05-08 09:18 | 50.08344 | 7.07897 | 37104 ft | 466 kts | 107° |
| 2026-05-08 09:19 | 50.06697 | 7.17646 | 37101 ft | 466 kts | 107° |
| 2026-05-08 09:19 | 50.05040 | 7.27405 | 37107 ft | 466 kts | 107° |
| 2026-05-08 09:20 | 50.03386 | 7.37093 | 37095 ft | 466 kts | 107° |
| 2026-05-08 09:20 | 50.01714 | 7.46828 | 37103 ft | 465 kts | 107° |
| 2026-05-08 09:21 | 50.00035 | 7.56552 | 37118 ft | 465 kts | 107° |
| 2026-05-08 09:23 | 49.94103 | 7.90483 | 37123 ft | 466 kts | 107° |
| 2026-05-08 09:23 | 49.92387 | 8.00179 | 37131 ft | 466 kts | 107° |
| 2026-05-08 09:24 | 49.90660 | 8.09886 | 37116 ft | 467 kts | 108° |
| 2026-05-08 09:24 | 49.88926 | 8.19582 | 37118 ft | 467 kts | 108° |
| 2026-05-08 09:25 | 49.87181 | 8.29294 | 37119 ft | 467 kts | 108° |
| 2026-05-08 09:25 | 49.85343 | 8.38951 | 37107 ft | 466 kts | 114° |
| 2026-05-08 09:26 | 49.82162 | 8.47548 | 37116 ft | 458 kts | 131° |
| 2026-05-08 09:26 | 49.78146 | 8.55208 | 37116 ft | 458 kts | 132° |
| 2026-05-08 09:27 | 49.74136 | 8.62827 | 37122 ft | 459 kts | 132° |
| 2026-05-08 09:27 | 49.70126 | 8.70535 | 37116 ft | 460 kts | 131° |
| 2026-05-08 09:28 | 49.66121 | 8.78258 | 37118 ft | 461 kts | 131° |
| 2026-05-08 09:28 | 49.62790 | 8.84670 | 37105 ft | 461 kts | 131° |
| 2026-05-08 09:29 | 49.58090 | 8.93683 | 37114 ft | 461 kts | 132° |
| 2026-05-08 09:29 | 49.54094 | 9.01320 | 37101 ft | 460 kts | 132° |
| 2026-05-08 09:30 | 49.50072 | 9.08990 | 37108 ft | 460 kts | 132° |
| 2026-05-08 09:30 | 49.46071 | 9.16691 | 37103 ft | 461 kts | 128° |
| 2026-05-08 09:31 | 49.42526 | 9.24854 | 37115 ft | 462 kts | 125° |
| 2026-05-08 09:31 | 49.39063 | 9.33208 | 37113 ft | 462 kts | 126° |
| 2026-05-08 09:32 | 49.35568 | 9.41506 | 37091 ft | 462 kts | 126° |
| 2026-05-08 09:32 | 49.32049 | 9.49734 | 37104 ft | 461 kts | 126° |
| 2026-05-08 09:33 | 49.28519 | 9.57933 | 37113 ft | 460 kts | 126° |
| 2026-05-08 09:33 | 49.25005 | 9.66073 | 37117 ft | 460 kts | 126° |
| 2026-05-08 09:34 | 49.21466 | 9.74249 | 37131 ft | 460 kts | 126° |
| 2026-05-08 09:34 | 49.17930 | 9.82398 | 37126 ft | 459 kts | 127° |
| 2026-05-08 09:35 | 49.14393 | 9.90523 | 37131 ft | 459 kts | 127° |
| 2026-05-08 09:35 | 49.10869 | 9.98597 | 37128 ft | 459 kts | 127° |
| 2026-05-08 09:36 | 49.07315 | 10.06709 | 37117 ft | 459 kts | 127° |
| 2026-05-08 09:36 | 49.03162 | 10.13983 | 37130 ft | 453 kts | 139° |
| 2026-05-08 09:37 | 48.98645 | 10.20694 | 37117 ft | 453 kts | 139° |
| 2026-05-08 09:37 | 48.94161 | 10.27380 | 37129 ft | 453 kts | 139° |
| 2026-05-08 09:38 | 48.89676 | 10.34130 | 37131 ft | 454 kts | 138° |
| 2026-05-08 09:38 | 48.85194 | 10.40884 | 37126 ft | 454 kts | 138° |
| 2026-05-08 09:39 | 48.80713 | 10.47622 | 37122 ft | 454 kts | 138° |
| 2026-05-08 09:39 | 48.76971 | 10.53232 | 37111 ft | 454 kts | 139° |
| 2026-05-08 09:40 | 48.72476 | 10.59953 | 37132 ft | 455 kts | 139° |
| 2026-05-08 09:40 | 48.67946 | 10.66708 | 37117 ft | 457 kts | 139° |
| 2026-05-08 09:41 | 48.62685 | 10.74537 | 37115 ft | 456 kts | 139° |
| 2026-05-08 09:41 | 48.58888 | 10.80179 | 37126 ft | 458 kts | 137° |
| 2026-05-08 09:42 | 48.54707 | 10.87539 | 37104 ft | 463 kts | 131° |
| 2026-05-08 09:42 | 48.50722 | 10.95123 | 37089 ft | 464 kts | 131° |
| 2026-05-08 09:43 | 48.46700 | 11.02714 | 37093 ft | 461 kts | 132° |
| 2026-05-08 09:43 | 48.42668 | 11.10203 | 37095 ft | 458 kts | 133° |
| 2026-05-08 09:44 | 48.38642 | 11.17614 | 37097 ft | 456 kts | 133° |
| 2026-05-08 09:44 | 48.34615 | 11.25000 | 37081 ft | 455 kts | 133° |
| 2026-05-08 09:45 | 48.30624 | 11.32303 | 37091 ft | 454 kts | 133° |
| 2026-05-08 09:45 | 48.26612 | 11.39627 | 37098 ft | 454 kts | 133° |
| 2026-05-08 09:46 | 48.22589 | 11.46953 | 37099 ft | 455 kts | 133° |
| 2026-05-08 09:46 | 48.18552 | 11.54283 | 37096 ft | 457 kts | 133° |
| 2026-05-08 09:47 | 48.14521 | 11.61583 | 37081 ft | 458 kts | 133° |
| 2026-05-08 09:47 | 48.10445 | 11.68946 | 37093 ft | 459 kts | 133° |
| 2026-05-08 09:48 | 48.06353 | 11.76317 | 37087 ft | 461 kts | 133° |
| 2026-05-08 09:48 | 48.02245 | 11.83696 | 37080 ft | 462 kts | 134° |
| 2026-05-08 09:49 | 47.98124 | 11.91077 | 37081 ft | 463 kts | 134° |
| 2026-05-08 09:49 | 47.93989 | 11.98464 | 37074 ft | 464 kts | 134° |
| 2026-05-08 09:50 | 47.89878 | 12.05790 | 37090 ft | 463 kts | 134° |
| 2026-05-08 09:50 | 47.85735 | 12.13152 | 37082 ft | 463 kts | 134° |
| 2026-05-08 09:51 | 47.81595 | 12.20488 | 37104 ft | 463 kts | 134° |
| 2026-05-08 09:51 | 47.77438 | 12.27833 | 37056 ft | 464 kts | 134° |
| 2026-05-08 09:52 | 47.73280 | 12.35162 | 37089 ft | 462 kts | 135° |
| 2026-05-08 09:52 | 47.69173 | 12.42384 | 37089 ft | 460 kts | 135° |
| 2026-05-08 09:53 | 47.65045 | 12.49621 | 37075 ft | 459 kts | 135° |
| 2026-05-08 09:53 | 47.60818 | 12.56681 | 37076 ft | 454 kts | 140° |
| 2026-05-08 09:54 | 47.56258 | 12.63140 | 37069 ft | 453 kts | 142° |
| 2026-05-08 09:54 | 47.51669 | 12.69464 | 37057 ft | 452 kts | 142° |
| 2026-05-08 09:55 | 47.47084 | 12.75847 | 37065 ft | 452 kts | 142° |
| 2026-05-08 09:55 | 47.42515 | 12.82253 | 37064 ft | 453 kts | 142° |
| 2026-05-08 09:56 | 47.37941 | 12.88673 | 37082 ft | 454 kts | 142° |
| 2026-05-08 09:56 | 47.33346 | 12.95107 | 37066 ft | 455 kts | 142° |
| 2026-05-08 09:57 | 47.26479 | 13.04691 | 37054 ft | 455 kts | 142° |
| 2026-05-08 09:57 | 47.21884 | 13.11085 | 37065 ft | 453 kts | 142° |
| 2026-05-08 09:58 | 47.17297 | 13.17448 | 37060 ft | 454 kts | 142° |
| 2026-05-08 09:58 | 47.12698 | 13.23813 | 37064 ft | 453 kts | 142° |
| 2026-05-08 09:59 | 47.08104 | 13.30154 | 37061 ft | 453 kts | 142° |
| 2026-05-08 09:59 | 47.03503 | 13.36490 | 37058 ft | 452 kts | 142° |
| 2026-05-08 10:00 | 46.98952 | 13.42742 | 37065 ft | 451 kts | 142° |
| 2026-05-08 10:00 | 46.94363 | 13.49031 | 37070 ft | 450 kts | 142° |
| 2026-05-08 10:01 | 46.89785 | 13.55288 | 37083 ft | 450 kts | 142° |
| 2026-05-08 10:01 | 46.85197 | 13.61542 | 37064 ft | 451 kts | 142° |
| 2026-05-08 10:02 | 46.80633 | 13.67751 | 37074 ft | 451 kts | 142° |
| 2026-05-08 10:02 | 46.76021 | 13.74009 | 37044 ft | 452 kts | 143° |
| 2026-05-08 10:03 | 46.71416 | 13.80242 | 37077 ft | 452 kts | 142° |
| 2026-05-08 10:03 | 46.66791 | 13.86486 | 37077 ft | 455 kts | 142° |
| 2026-05-08 10:04 | 46.62128 | 13.92765 | 37073 ft | 457 kts | 142° |
| 2026-05-08 10:04 | 46.57446 | 13.99058 | 37076 ft | 459 kts | 143° |
| 2026-05-08 10:05 | 46.52754 | 14.05348 | 37079 ft | 459 kts | 143° |
| 2026-05-08 10:05 | 46.48090 | 14.11586 | 37084 ft | 458 kts | 142° |
| 2026-05-08 10:06 | 46.43419 | 14.17819 | 37088 ft | 455 kts | 143° |
| 2026-05-08 10:06 | 46.38762 | 14.24016 | 37099 ft | 454 kts | 143° |
| 2026-05-08 10:07 | 46.34100 | 14.30203 | 37090 ft | 454 kts | 143° |
| 2026-05-08 10:07 | 46.29450 | 14.36358 | 37101 ft | 453 kts | 143° |
| 2026-05-08 10:08 | 46.24801 | 14.42500 | 37097 ft | 452 kts | 143° |
| 2026-05-08 10:08 | 46.20164 | 14.48611 | 37098 ft | 451 kts | 143° |
| 2026-05-08 10:09 | 46.15563 | 14.54661 | 37099 ft | 450 kts | 143° |
| 2026-05-08 10:09 | 46.10938 | 14.60726 | 37099 ft | 449 kts | 143° |
| 2026-05-08 10:10 | 46.06319 | 14.66770 | 37098 ft | 448 kts | 143° |
| 2026-05-08 10:10 | 46.01699 | 14.72799 | 37096 ft | 448 kts | 143° |
| 2026-05-08 10:11 | 45.97067 | 14.78832 | 37083 ft | 449 kts | 143° |
| 2026-05-08 10:11 | 45.92468 | 14.84807 | 37086 ft | 449 kts | 143° |
| 2026-05-08 10:12 | 45.87835 | 14.90813 | 37089 ft | 449 kts | 143° |
| 2026-05-08 10:12 | 45.83190 | 14.96820 | 37093 ft | 449 kts | 144° |
| 2026-05-08 10:13 | 45.78544 | 15.02815 | 37086 ft | 449 kts | 144° |
| 2026-05-08 10:13 | 45.73916 | 15.08773 | 37077 ft | 450 kts | 144° |
| 2026-05-08 10:14 | 45.69253 | 15.14761 | 37087 ft | 450 kts | 144° |
| 2026-05-08 10:14 | 45.64582 | 15.20748 | 37089 ft | 450 kts | 144° |
| 2026-05-08 10:15 | 45.59944 | 15.26679 | 37092 ft | 450 kts | 144° |
| 2026-05-08 10:15 | 45.55446 | 15.32937 | 37098 ft | 455 kts | 136° |
| 2026-05-08 10:16 | 45.51364 | 15.39865 | 37077 ft | 456 kts | 135° |
| 2026-05-08 10:16 | 45.47326 | 15.46835 | 37085 ft | 455 kts | 135° |
| 2026-05-08 10:17 | 45.43260 | 15.53735 | 37101 ft | 454 kts | 135° |
| 2026-05-08 10:17 | 45.39173 | 15.60585 | 37087 ft | 454 kts | 136° |
| 2026-05-08 10:18 | 45.35108 | 15.67364 | 37072 ft | 453 kts | 136° |
| 2026-05-08 10:18 | 45.31018 | 15.74168 | 37087 ft | 452 kts | 136° |
| 2026-05-08 10:19 | 45.26925 | 15.80964 | 37076 ft | 452 kts | 136° |
| 2026-05-08 10:20 | 45.20807 | 15.91095 | 37097 ft | 450 kts | 135° |
| 2026-05-08 10:20 | 45.16723 | 15.97837 | 37088 ft | 450 kts | 136° |
| 2026-05-08 10:21 | 45.12666 | 16.04517 | 37089 ft | 450 kts | 136° |
| 2026-05-08 10:21 | 45.08578 | 16.11232 | 37095 ft | 450 kts | 136° |
| 2026-05-08 10:22 | 45.04481 | 16.17947 | 37083 ft | 451 kts | 136° |
| 2026-05-08 10:22 | 45.00374 | 16.24661 | 37096 ft | 451 kts | 136° |
| 2026-05-08 10:23 | 44.96268 | 16.31360 | 37082 ft | 451 kts | 135° |
| 2026-05-08 10:23 | 44.92185 | 16.38003 | 37090 ft | 451 kts | 135° |
| 2026-05-08 10:24 | 44.88073 | 16.44679 | 37085 ft | 451 kts | 135° |
| 2026-05-08 10:24 | 44.83952 | 16.51353 | 37086 ft | 451 kts | 135° |
| 2026-05-08 10:25 | 44.79824 | 16.58023 | 37074 ft | 451 kts | 135° |
| 2026-05-08 10:25 | 44.75702 | 16.64668 | 37089 ft | 451 kts | 136° |
| 2026-05-08 10:26 | 44.71570 | 16.71313 | 37080 ft | 450 kts | 135° |
| 2026-05-08 10:26 | 44.67441 | 16.77939 | 37087 ft | 451 kts | 135° |
| 2026-05-08 10:27 | 44.63302 | 16.84567 | 37068 ft | 451 kts | 136° |
| 2026-05-08 10:27 | 44.59185 | 16.91143 | 37078 ft | 452 kts | 135° |
| 2026-05-08 10:28 | 44.55184 | 16.97986 | 37080 ft | 454 kts | 133° |
| 2026-05-08 10:28 | 44.51296 | 17.04978 | 37070 ft | 455 kts | 132° |
| 2026-05-08 10:29 | 44.47414 | 17.11938 | 37062 ft | 455 kts | 132° |
| 2026-05-08 10:29 | 44.43494 | 17.18896 | 37075 ft | 454 kts | 133° |
| 2026-05-08 10:30 | 44.39565 | 17.25822 | 37068 ft | 453 kts | 133° |
| 2026-05-08 10:30 | 44.35638 | 17.32723 | 37083 ft | 452 kts | 133° |
| 2026-05-08 10:31 | 44.32374 | 17.38447 | 37071 ft | 452 kts | 133° |
| 2026-05-08 10:31 | 44.27818 | 17.46419 | 37071 ft | 451 kts | 133° |
| 2026-05-08 10:32 | 44.23899 | 17.53259 | 37078 ft | 451 kts | 133° |
| 2026-05-08 10:32 | 44.20645 | 17.58926 | 37071 ft | 450 kts | 133° |
| 2026-05-08 10:33 | 44.16725 | 17.65737 | 37084 ft | 450 kts | 133° |
| 2026-05-08 10:33 | 44.12803 | 17.72537 | 37058 ft | 450 kts | 133° |
| 2026-05-08 10:34 | 44.08877 | 17.79329 | 37077 ft | 449 kts | 133° |
| 2026-05-08 10:34 | 44.04980 | 17.86053 | 37077 ft | 448 kts | 133° |
| 2026-05-08 10:35 | 44.01061 | 17.92800 | 37072 ft | 449 kts | 133° |
| 2026-05-08 10:35 | 43.97133 | 17.99546 | 37060 ft | 449 kts | 133° |
| 2026-05-08 10:36 | 43.93198 | 18.06290 | 37067 ft | 449 kts | 134° |
| 2026-05-08 10:36 | 43.89259 | 18.13024 | 37056 ft | 448 kts | 134° |
| 2026-05-08 10:37 | 43.85357 | 18.19681 | 37056 ft | 447 kts | 134° |
| 2026-05-08 10:37 | 43.81430 | 18.26363 | 37062 ft | 447 kts | 134° |
| 2026-05-08 10:38 | 43.77528 | 18.32991 | 37089 ft | 442 kts | 134° |
| 2026-05-08 10:38 | 43.73622 | 18.39604 | 37089 ft | 444 kts | 134° |
| 2026-05-08 10:39 | 43.69697 | 18.46234 | 37084 ft | 446 kts | 134° |
| 2026-05-08 10:39 | 43.65778 | 18.52841 | 37060 ft | 448 kts | 134° |
| 2026-05-08 10:40 | 43.61813 | 18.59513 | 37045 ft | 450 kts | 133° |
| 2026-05-08 10:40 | 43.57827 | 18.66205 | 37058 ft | 451 kts | 134° |
| 2026-05-08 10:41 | 43.53834 | 18.72892 | 37050 ft | 451 kts | 134° |
| 2026-05-08 10:41 | 43.49840 | 18.79566 | 37040 ft | 451 kts | 134° |
| 2026-05-08 10:42 | 43.45870 | 18.86186 | 37035 ft | 450 kts | 134° |
| 2026-05-08 10:42 | 43.41887 | 18.92810 | 37043 ft | 448 kts | 134° |
| 2026-05-08 10:43 | 43.37907 | 18.99415 | 37028 ft | 447 kts | 134° |
| 2026-05-08 10:43 | 43.33936 | 19.05990 | 37034 ft | 446 kts | 134° |
| 2026-05-08 10:44 | 43.29966 | 19.12548 | 37022 ft | 446 kts | 134° |
| 2026-05-08 10:44 | 43.26024 | 19.19045 | 37032 ft | 445 kts | 134° |
| 2026-05-08 10:45 | 43.22030 | 19.25613 | 37029 ft | 445 kts | 134° |
| 2026-05-08 10:45 | 43.18079 | 19.32095 | 37029 ft | 446 kts | 134° |
| 2026-05-08 10:46 | 43.14093 | 19.38621 | 37026 ft | 447 kts | 134° |
| 2026-05-08 10:46 | 43.10097 | 19.45150 | 37027 ft | 448 kts | 134° |
| 2026-05-08 10:47 | 43.06086 | 19.51687 | 37020 ft | 448 kts | 134° |
| 2026-05-08 10:47 | 43.02071 | 19.58217 | 37032 ft | 449 kts | 134° |
| 2026-05-08 10:48 | 42.98064 | 19.64720 | 37022 ft | 450 kts | 134° |
| 2026-05-08 10:48 | 42.94023 | 19.71263 | 37029 ft | 451 kts | 134° |
| 2026-05-08 10:49 | 42.89967 | 19.77816 | 37014 ft | 451 kts | 134° |
| 2026-05-08 10:49 | 42.85921 | 19.84341 | 37008 ft | 450 kts | 134° |
| 2026-05-08 10:50 | 42.81872 | 19.90853 | 37014 ft | 450 kts | 134° |
| 2026-05-08 10:50 | 42.77829 | 19.97344 | 37028 ft | 449 kts | 134° |
| 2026-05-08 10:51 | 42.73805 | 20.03802 | 37036 ft | 451 kts | 134° |
| 2026-05-08 10:51 | 42.69811 | 20.10383 | 37033 ft | 451 kts | 133° |
| 2026-05-08 10:52 | 42.65835 | 20.16981 | 37048 ft | 451 kts | 133° |
| 2026-05-08 10:52 | 42.61870 | 20.23533 | 37040 ft | 451 kts | 133° |
| 2026-05-08 10:53 | 42.57867 | 20.30118 | 37030 ft | 450 kts | 134° |
| 2026-05-08 10:53 | 42.53880 | 20.36654 | 37055 ft | 449 kts | 134° |
| 2026-05-08 10:54 | 42.49896 | 20.43171 | 37058 ft | 449 kts | 134° |
| 2026-05-08 10:54 | 42.45906 | 20.49684 | 37033 ft | 449 kts | 134° |
| 2026-05-08 10:55 | 42.41943 | 20.56141 | 37071 ft | 449 kts | 134° |
| 2026-05-08 10:55 | 42.37908 | 20.62696 | 37053 ft | 455 kts | 134° |
| 2026-05-08 10:56 | 42.33846 | 20.69283 | 37053 ft | 456 kts | 134° |
| 2026-05-08 10:56 | 42.29773 | 20.75877 | 37055 ft | 455 kts | 134° |
| 2026-05-08 10:57 | 42.25713 | 20.82436 | 37041 ft | 454 kts | 134° |
| 2026-05-08 10:57 | 42.19652 | 20.92198 | 37057 ft | 453 kts | 134° |
| 2026-05-08 10:58 | 42.15592 | 20.98720 | 37064 ft | 453 kts | 134° |
| 2026-05-08 10:58 | 42.11547 | 21.05195 | 37059 ft | 453 kts | 135° |
| 2026-05-08 10:59 | 42.07126 | 21.11163 | 37065 ft | 449 kts | 141° |
| 2026-05-08 10:59 | 42.02534 | 21.16847 | 37044 ft | 449 kts | 142° |
| 2026-05-08 11:00 | 41.97937 | 21.22558 | 37056 ft | 450 kts | 141° |
| 2026-05-08 11:00 | 41.93364 | 21.28302 | 37070 ft | 451 kts | 141° |
| 2026-05-08 11:01 | 41.88781 | 21.34076 | 37068 ft | 452 kts | 141° |
| 2026-05-08 11:01 | 41.84209 | 21.39831 | 37070 ft | 454 kts | 141° |
| 2026-05-08 11:02 | 41.77273 | 21.48534 | 37050 ft | 456 kts | 141° |
| 2026-05-08 11:03 | 41.72640 | 21.54333 | 37073 ft | 457 kts | 141° |
| 2026-05-08 11:03 | 41.67974 | 21.60158 | 37071 ft | 458 kts | 141° |
| 2026-05-08 11:04 | 41.63333 | 21.65942 | 37068 ft | 459 kts | 141° |
| 2026-05-08 11:04 | 41.58653 | 21.71763 | 37079 ft | 459 kts | 141° |
| 2026-05-08 11:05 | 41.53966 | 21.77579 | 37077 ft | 460 kts | 141° |
| 2026-05-08 11:05 | 41.49261 | 21.83406 | 37053 ft | 461 kts | 142° |
| 2026-05-08 11:06 | 41.44570 | 21.89207 | 37064 ft | 458 kts | 142° |
| 2026-05-08 11:06 | 41.39896 | 21.94971 | 37077 ft | 457 kts | 142° |
| 2026-05-08 11:07 | 41.35264 | 22.00672 | 37083 ft | 456 kts | 142° |
| 2026-05-08 11:07 | 41.30595 | 22.06406 | 37077 ft | 456 kts | 142° |
| 2026-05-08 11:08 | 41.25929 | 22.12127 | 37079 ft | 456 kts | 142° |
| 2026-05-08 11:08 | 41.21265 | 22.17836 | 37079 ft | 455 kts | 142° |
| 2026-05-08 11:09 | 41.16604 | 22.23524 | 36903 ft | 459 kts | 143° |
| 2026-05-08 11:09 | 41.14210 | 22.26286 | 36689 ft | 461 kts | 145° |
| 2026-05-08 11:09 | 41.11699 | 22.29021 | 36424 ft | 460 kts | 146° |
| 2026-05-08 11:09 | 41.09213 | 22.31666 | 35911 ft | 457 kts | 146° |
| 2026-05-08 11:10 | 41.06746 | 22.34276 | 35561 ft | 452 kts | 146° |
| 2026-05-08 11:10 | 41.04326 | 22.36840 | 35140 ft | 449 kts | 146° |
| 2026-05-08 11:10 | 41.01898 | 22.39424 | 34721 ft | 445 kts | 145° |
| 2026-05-08 11:10 | 40.99494 | 22.41991 | 34324 ft | 441 kts | 145° |
| 2026-05-08 11:11 | 40.97110 | 22.44544 | 33893 ft | 438 kts | 145° |
| 2026-05-08 11:11 | 40.94750 | 22.47072 | 33428 ft | 435 kts | 146° |
| 2026-05-08 11:11 | 40.92404 | 22.49585 | 33041 ft | 431 kts | 146° |
| 2026-05-08 11:11 | 40.90080 | 22.52072 | 32633 ft | 429 kts | 146° |
| 2026-05-08 11:12 | 40.87772 | 22.54539 | 32248 ft | 425 kts | 146° |
| 2026-05-08 11:12 | 40.85476 | 22.56989 | 31848 ft | 422 kts | 146° |
| 2026-05-08 11:12 | 40.83226 | 22.59390 | 31487 ft | 418 kts | 146° |
| 2026-05-08 11:12 | 40.80973 | 22.61790 | 31104 ft | 415 kts | 146° |
| 2026-05-08 11:13 | 40.78726 | 22.64183 | 30737 ft | 412 kts | 146° |
| 2026-05-08 11:13 | 40.76505 | 22.66545 | 30371 ft | 408 kts | 145° |
| 2026-05-08 11:13 | 40.74300 | 22.68888 | 29977 ft | 405 kts | 145° |
| 2026-05-08 11:13 | 40.72131 | 22.71192 | 29581 ft | 401 kts | 146° |
| 2026-05-08 11:14 | 40.69966 | 22.73489 | 29205 ft | 397 kts | 146° |
| 2026-05-08 11:14 | 40.67823 | 22.75761 | 28836 ft | 393 kts | 146° |
| 2026-05-08 11:14 | 40.65700 | 22.78010 | 28471 ft | 390 kts | 146° |
| 2026-05-08 11:14 | 40.63586 | 22.80246 | 28086 ft | 388 kts | 146° |
| 2026-05-08 11:15 | 40.61477 | 22.82474 | 27726 ft | 391 kts | 146° |
| 2026-05-08 11:15 | 40.59339 | 22.84728 | 27352 ft | 395 kts | 146° |
| 2026-05-08 11:15 | 40.57209 | 22.86977 | 26983 ft | 392 kts | 146° |
| 2026-05-08 11:15 | 40.55094 | 22.89211 | 26610 ft | 388 kts | 146° |
| 2026-05-08 11:16 | 40.52994 | 22.91426 | 26244 ft | 385 kts | 146° |
| 2026-05-08 11:16 | 40.50910 | 22.93622 | 25882 ft | 382 kts | 146° |
| 2026-05-08 11:16 | 40.48842 | 22.95797 | 25524 ft | 380 kts | 146° |
| 2026-05-08 11:16 | 40.46775 | 22.97946 | 25168 ft | 376 kts | 149° |
| 2026-05-08 11:17 | 40.44563 | 22.99706 | 24856 ft | 366 kts | 160° |
| 2026-05-08 11:17 | 40.42266 | 23.00927 | 24595 ft | 360 kts | 165° |
| 2026-05-08 11:17 | 40.39919 | 23.02076 | 24242 ft | 360 kts | 165° |
| 2026-05-08 11:17 | 40.37566 | 23.03214 | 23891 ft | 361 kts | 165° |
| 2026-05-08 11:18 | 40.35199 | 23.04365 | 23477 ft | 363 kts | 165° |
| 2026-05-08 11:18 | 40.32829 | 23.05528 | 23065 ft | 362 kts | 165° |
| 2026-05-08 11:18 | 40.30482 | 23.06688 | 22666 ft | 360 kts | 165° |
| 2026-05-08 11:18 | 40.28150 | 23.07846 | 22292 ft | 357 kts | 164° |
| 2026-05-08 11:19 | 40.25836 | 23.08995 | 21925 ft | 354 kts | 164° |
| 2026-05-08 11:19 | 40.23540 | 23.10136 | 21553 ft | 351 kts | 165° |
| 2026-05-08 11:19 | 40.22031 | 23.10885 | 21303 ft | 349 kts | 165° |
| 2026-05-08 11:19 | 40.19765 | 23.12009 | 20969 ft | 346 kts | 165° |
| 2026-05-08 11:20 | 40.16788 | 23.13485 | 20502 ft | 344 kts | 165° |
| 2026-05-08 11:20 | 40.15282 | 23.14230 | 20272 ft | 342 kts | 165° |
| 2026-05-08 11:20 | 40.12340 | 23.15686 | 19814 ft | 340 kts | 165° |
| 2026-05-08 11:20 | 40.10135 | 23.16775 | 19480 ft | 338 kts | 165° |
| 2026-05-08 11:21 | 40.08645 | 23.17511 | 19249 ft | 338 kts | 165° |
| 2026-05-08 11:21 | 40.06447 | 23.18595 | 18898 ft | 337 kts | 165° |
| 2026-05-08 11:21 | 40.04287 | 23.19660 | 18565 ft | 335 kts | 165° |
| 2026-05-08 11:21 | 40.02110 | 23.20733 | 18197 ft | 334 kts | 165° |
| 2026-05-08 11:22 | 39.99943 | 23.21801 | 17808 ft | 332 kts | 165° |
| 2026-05-08 11:22 | 39.97785 | 23.22864 | 17454 ft | 331 kts | 165° |
| 2026-05-08 11:22 | 39.95635 | 23.23922 | 17110 ft | 329 kts | 165° |
| 2026-05-08 11:22 | 39.93501 | 23.24971 | 16767 ft | 327 kts | 165° |
| 2026-05-08 11:23 | 39.91374 | 23.26017 | 16429 ft | 324 kts | 165° |
| 2026-05-08 11:23 | 39.89273 | 23.27044 | 16100 ft | 322 kts | 166° |
| 2026-05-08 11:23 | 39.87175 | 23.28065 | 15771 ft | 320 kts | 166° |
| 2026-05-08 11:23 | 39.85097 | 23.29075 | 15445 ft | 318 kts | 166° |
| 2026-05-08 11:24 | 39.83026 | 23.30081 | 15119 ft | 317 kts | 166° |
| 2026-05-08 11:24 | 39.80963 | 23.31082 | 14793 ft | 316 kts | 166° |
| 2026-05-08 11:24 | 39.78901 | 23.32083 | 14468 ft | 316 kts | 166° |
| 2026-05-08 11:24 | 39.76841 | 23.33082 | 14116 ft | 315 kts | 166° |
| 2026-05-08 11:25 | 39.74815 | 23.34064 | 13781 ft | 315 kts | 166° |
| 2026-05-08 11:25 | 39.72767 | 23.35058 | 13431 ft | 314 kts | 166° |
| 2026-05-08 11:25 | 39.70730 | 23.36053 | 13181 ft | 311 kts | 166° |
| 2026-05-08 11:25 | 39.68709 | 23.37043 | 12924 ft | 310 kts | 166° |
| 2026-05-08 11:26 | 39.66692 | 23.38030 | 12681 ft | 306 kts | 166° |
| 2026-05-08 11:26 | 39.64730 | 23.38990 | 12369 ft | 304 kts | 166° |
| 2026-05-08 11:26 | 39.62753 | 23.39956 | 12048 ft | 303 kts | 166° |
| 2026-05-08 11:26 | 39.60787 | 23.40915 | 11722 ft | 301 kts | 166° |
| 2026-05-08 11:27 | 39.58828 | 23.41870 | 11398 ft | 300 kts | 166° |
| 2026-05-08 11:27 | 39.56876 | 23.42821 | 11064 ft | 299 kts | 166° |
| 2026-05-08 11:27 | 39.54926 | 23.43771 | 10709 ft | 299 kts | 165° |
| 2026-05-08 11:27 | 39.52980 | 23.44718 | 10435 ft | 296 kts | 165° |
| 2026-05-08 11:28 | 39.51074 | 23.45648 | 10266 ft | 289 kts | 166° |
| 2026-05-08 11:28 | 39.49211 | 23.46556 | 10132 ft | 282 kts | 166° |
| 2026-05-08 11:28 | 39.47373 | 23.47449 | 9826 ft | 281 kts | 166° |
| 2026-05-08 11:28 | 39.45544 | 23.48335 | 9513 ft | 280 kts | 166° |
| 2026-05-08 11:29 | 39.43746 | 23.49207 | 9213 ft | 279 kts | 165° |
| 2026-05-08 11:29 | 39.41926 | 23.50089 | 8905 ft | 278 kts | 165° |
| 2026-05-08 11:29 | 39.40104 | 23.50969 | 8497 ft | 281 kts | 165° |
| 2026-05-08 11:29 | 39.38276 | 23.51852 | 8186 ft | 279 kts | 165° |
| 2026-05-08 11:30 | 39.36461 | 23.52729 | 7878 ft | 278 kts | 164° |
| 2026-05-08 11:30 | 39.34651 | 23.53603 | 7574 ft | 277 kts | 164° |
| 2026-05-08 11:30 | 39.32853 | 23.54471 | 7283 ft | 275 kts | 163° |
| 2026-05-08 11:30 | 39.31067 | 23.55333 | 6990 ft | 273 kts | 164° |
| 2026-05-08 11:31 | 39.29288 | 23.56191 | 6698 ft | 272 kts | 163° |
| 2026-05-08 11:31 | 39.27517 | 23.57045 | 6415 ft | 270 kts | 163° |
| 2026-05-08 11:31 | 39.25787 | 23.57878 | 6118 ft | 268 kts | 163° |
| 2026-05-08 11:31 | 39.24041 | 23.58719 | 5822 ft | 267 kts | 163° |
| 2026-05-08 11:32 | 39.22307 | 23.59552 | 5537 ft | 265 kts | 162° |
| 2026-05-08 11:32 | 39.20594 | 23.60375 | 5252 ft | 263 kts | 162° |
| 2026-05-08 11:32 | 39.18866 | 23.61139 | 4950 ft | 260 kts | 171° |
| 2026-05-08 11:32 | 39.17132 | 23.60958 | 4688 ft | 248 kts | 200° |
| 2026-05-08 11:33 | 39.15563 | 23.60059 | 4323 ft | 245 kts | 206° |
| 2026-05-08 11:33 | 39.14091 | 23.59084 | 4075 ft | 236 kts | 207° |
| 2026-05-08 11:33 | 39.12640 | 23.58100 | 3797 ft | 229 kts | 207° |
| 2026-05-08 11:33 | 39.11243 | 23.57163 | 3535 ft | 224 kts | 207° |
| 2026-05-08 11:34 | 39.09874 | 23.56255 | 3291 ft | 224 kts | 206° |
| 2026-05-08 11:34 | 39.08490 | 23.55343 | 3053 ft | 221 kts | 206° |
| 2026-05-08 11:34 | 39.07137 | 23.54457 | 2795 ft | 216 kts | 206° |
| 2026-05-08 11:34 | 39.05822 | 23.53598 | 2530 ft | 206 kts | 206° |
| 2026-05-08 11:35 | 39.04623 | 23.52706 | 2373 ft | 192 kts | 222° |
| 2026-05-08 11:35 | 39.04093 | 23.51240 | 2341 ft | 178 kts | 263° |
| 2026-05-08 11:35 | 39.04239 | 23.49680 | 2335 ft | 177 kts | 289° |
| 2026-05-08 11:35 | 39.04917 | 23.48352 | 2203 ft | 182 kts | 318° |
| 2026-05-08 11:36 | 39.06020 | 23.47594 | 2044 ft | 177 kts | 347° |
| 2026-05-08 11:36 | 39.07186 | 23.47527 | 1921 ft | 159 kts | 6° |
| 2026-05-08 11:36 | 39.08238 | 23.47681 | 1797 ft | 149 kts | 8° |
| 2026-05-08 11:36 | 39.09263 | 23.47858 | 1578 ft | 148 kts | 12° |
| 2026-05-08 11:37 | 39.10262 | 23.47986 | 1405 ft | 146 kts | 2° |
| 2026-05-08 11:37 | 39.11279 | 23.47981 | 1198 ft | 146 kts | 0° |
| 2026-05-08 11:37 | 39.12288 | 23.47992 | 1018 ft | 143 kts | 7° |
| 2026-05-08 11:37 | 39.13229 | 23.48308 | 891 ft | 139 kts | 22° |
| 2026-05-08 11:38 | 39.14139 | 23.48738 | 705 ft | 138 kts | 20° |
| 2026-05-08 11:38 | 39.15033 | 23.49159 | 469 ft | 135 kts | 20° |
| 2026-05-08 11:38 | 39.15910 | 23.49561 | 287 ft | 133 kts | 19° |
| 2026-05-08 11:38 | 39.16778 | 23.49949 | 103 ft | 134 kts | 19° |
| 2026-05-08 11:39 | 39.17628 | 23.50331 | 41 ft | 114 kts | 19° |
| 2026-05-08 11:39 | 39.18167 | 23.50569 | 48 ft | 50 kts | 19° |
| 2026-05-08 11:39 | 39.18389 | 23.50669 | 54 ft | 20 kts | 19° |
| 2026-05-08 11:39 | 39.18487 | 23.50692 | 55 ft | 13 kts | 346° |
| 2026-05-08 11:40 | 39.18503 | 23.50711 | 56 ft | 3 kts | 156° |
| 2026-05-08 11:40 | 39.18453 | 23.50697 | 60 ft | 11 kts | 199° |
| 2026-05-08 11:40 | 39.18359 | 23.50656 | 51 ft | 18 kts | 199° |
| 2026-05-08 11:40 | 39.18230 | 23.50598 | 55 ft | 21 kts | 198° |
| 2026-05-08 11:41 | 39.18082 | 23.50532 | 48 ft | 23 kts | 199° |
| 2026-05-08 11:41 | 39.17952 | 23.50463 | 43 ft | 17 kts | 226° |
| 2026-05-08 11:41 | 39.17920 | 23.50368 | 39 ft | 10 kts | 251° |
| 2026-05-08 11:41 | 39.17869 | 23.50314 | 38 ft | 7 kts | 208° |
| 2026-05-08 11:42 | 39.17861 | 23.50287 | 38 ft | 3 kts | 267° |
| 2026-05-08 11:42 | 39.17864 | 23.50264 | 38 ft | 0 kts | 287° |
| 2026-05-08 11:42 | 39.17865 | 23.50262 | 38 ft | 2 kts | 287° |
| 2026-05-08 11:43 | 39.17874 | 23.50226 | 38 ft | 2 kts | 289° |